createdAt,value
2019-01-20T00:05:06.248Z,9.30
2019-01-20T00:12:04.827Z,9.20
2019-01-20T00:21:57.644Z,10.60
2019-01-20T00:25:12.076Z,9.58
2019-01-20T00:31:26.253Z,11.25
2019-01-20T00:34:19.870Z,10.98
2019-01-20T00:37:16.925Z,10.30
2019-01-20T00:47:31.242Z,11.43
2019-01-20T00:50:21.219Z,11.68
2019-01-20T00:53:22.334Z,10.23
2019-01-20T00:56:00.722Z,10.55
2019-01-20T00:59:00.590Z,9.28
2019-01-20T01:02:24.113Z,10.65
2019-01-20T01:05:36.864Z,9.65
2019-01-20T02:44:59.975Z,12.75
2019-01-20T03:19:16.669Z,12.00
2019-01-20T03:21:45.420Z,11.75
2019-01-20T03:24:14.237Z,13.18
2019-01-20T03:26:43.131Z,11.22
2019-01-20T03:31:55.233Z,11.70
2019-01-20T03:34:24.135Z,12.18
2019-01-20T03:36:52.998Z,12.25
2019-01-20T03:39:21.993Z,12.47
2019-01-20T03:41:50.784Z,12.33
2019-01-20T03:44:19.623Z,11.12
2019-01-20T03:46:48.518Z,12.23
2019-01-20T03:49:17.398Z,12.35
2019-01-20T03:51:46.241Z,11.43
2019-01-20T03:54:15.059Z,11.40
2019-01-20T03:56:44.010Z,12.07
2019-01-20T03:59:14.581Z,12.75
2019-01-20T04:01:43.370Z,12.28
2019-01-20T04:04:12.199Z,11.73
2019-01-20T04:06:41.095Z,11.85
2019-01-20T04:09:10.095Z,11.20
2019-01-20T04:11:39.007Z,11.83
2019-01-20T04:14:08.002Z,11.35
2019-01-20T04:16:36.841Z,10.53
2019-01-20T04:19:05.709Z,11.68
2019-01-20T04:21:34.531Z,10.80
2019-01-20T04:24:03.386Z,11.22
2019-01-20T04:26:32.189Z,11.97
2019-01-20T04:29:01.352Z,11.97
2019-01-20T04:31:30.238Z,11.45
2019-01-20T04:33:58.925Z,11.28
2019-01-20T04:36:27.754Z,10.63
2019-01-20T04:38:56.481Z,10.72
2019-01-20T04:41:25.160Z,10.95
2019-01-20T04:43:53.826Z,11.28
2019-01-20T04:46:22.515Z,11.28
2019-01-20T04:48:51.320Z,11.88
2019-01-20T04:51:20.041Z,10.70
2019-01-20T04:53:48.687Z,11.83
2019-01-20T04:56:17.407Z,11.15
2019-01-20T04:58:46.139Z,11.05
2019-01-20T05:01:14.884Z,10.75
2019-01-20T05:03:43.655Z,10.88
2019-01-20T05:06:12.519Z,10.55
2019-01-20T05:08:41.174Z,11.50
2019-01-20T05:11:09.874Z,11.10
2019-01-20T05:13:38.600Z,10.90
2019-01-20T05:16:07.467Z,11.40
2019-01-20T05:18:36.210Z,10.88
2019-01-20T05:21:04.896Z,11.85
2019-01-20T05:23:33.662Z,10.68
2019-01-20T05:26:02.381Z,10.50
2019-01-20T05:28:31.107Z,11.33
2019-01-20T05:30:59.795Z,11.68
2019-01-20T05:33:28.476Z,11.45
2019-01-20T05:35:57.171Z,9.73
2019-01-20T05:38:25.931Z,11.03
2019-01-20T05:40:54.662Z,10.25
2019-01-20T05:43:23.415Z,11.63
2019-01-20T05:45:52.081Z,11.30
2019-01-20T05:48:20.884Z,11.80
2019-01-20T05:50:49.590Z,12.15
2019-01-20T05:53:18.271Z,10.80
2019-01-20T05:55:46.998Z,12.40
2019-01-20T05:58:15.692Z,11.90
2019-01-20T06:00:44.375Z,11.50
2019-01-20T06:03:13.092Z,11.20
2019-01-20T06:05:41.832Z,10.70
2019-01-20T06:08:10.540Z,12.35
2019-01-20T06:10:39.244Z,12.40
2019-01-20T06:13:08.027Z,11.40
2019-01-20T06:15:36.758Z,12.07
2019-01-20T06:18:05.960Z,10.93
2019-01-20T06:20:34.686Z,11.83
2019-01-20T06:23:06.515Z,11.85
2019-01-20T06:25:35.614Z,9.95
2019-01-20T06:28:04.305Z,11.38
2019-01-20T06:30:33.557Z,10.78
2019-01-20T06:33:02.219Z,11.97
2019-01-20T06:35:31.060Z,11.22
2019-01-20T06:37:59.816Z,10.70
2019-01-20T06:40:28.577Z,11.22
2019-01-20T06:43:01.597Z,10.85
2019-01-20T06:45:27.655Z,10.45
2019-01-20T06:47:56.351Z,11.80
2019-01-20T06:50:25.015Z,11.53
2019-01-20T06:52:53.709Z,12.43
2019-01-20T06:55:22.501Z,12.68
2019-01-20T06:57:51.327Z,12.03
2019-01-20T07:00:20.867Z,12.13
2019-01-20T07:02:49.652Z,12.50
2019-01-20T07:05:18.295Z,12.93
2019-01-20T07:07:47.061Z,11.57
2019-01-20T07:10:16.246Z,11.38
2019-01-20T07:12:45.049Z,11.53
2019-01-20T07:15:15.140Z,11.63
2019-01-20T07:17:43.905Z,12.30
2019-01-20T07:20:12.763Z,11.78
2019-01-20T07:22:41.535Z,12.15
2019-01-20T07:25:10.339Z,12.25
2019-01-20T07:27:39.113Z,12.03
2019-01-20T07:30:09.105Z,12.65
2019-01-20T07:32:37.891Z,12.13
2019-01-20T07:35:07.144Z,13.00
2019-01-20T07:37:35.917Z,12.95
2019-01-20T07:40:23.828Z,12.65
2019-01-20T07:42:52.610Z,11.88
2019-01-20T07:45:21.310Z,12.25
2019-01-20T07:47:50.133Z,12.95
2019-01-20T07:50:22.693Z,11.40
2019-01-20T07:52:51.357Z,12.73
2019-01-20T07:55:20.113Z,11.70
2019-01-20T07:57:48.905Z,12.47
2019-01-20T08:00:18.531Z,11.88
2019-01-20T08:02:47.220Z,11.45
2019-01-20T08:05:16.046Z,11.33
2019-01-20T08:07:44.852Z,12.60
2019-01-20T08:10:15.001Z,12.45
2019-01-20T08:12:43.750Z,13.00
2019-01-20T08:15:12.658Z,13.05
2019-01-20T08:17:41.368Z,12.98
2019-01-20T08:20:11.561Z,11.90
2019-01-20T08:22:40.271Z,12.07
2019-01-20T08:25:10.583Z,12.33
2019-01-20T08:27:39.391Z,13.05
2019-01-20T08:30:09.676Z,12.65
2019-01-20T08:32:38.696Z,11.53
2019-01-20T08:35:08.213Z,13.22
2019-01-20T08:37:36.962Z,13.98
2019-01-20T08:40:06.790Z,15.98
2019-01-20T08:42:35.498Z,15.40
2019-01-20T08:45:05.502Z,16.23
2019-01-20T08:47:36.140Z,18.25
2019-01-20T08:50:07.786Z,18.35
2019-01-20T08:52:36.599Z,16.52
2019-01-20T08:55:05.843Z,17.65
2019-01-20T08:57:34.453Z,18.10
2019-01-20T09:00:03.363Z,23.87
2019-01-20T09:02:32.083Z,24.30
2019-01-20T09:05:00.863Z,19.50
2019-01-20T09:07:29.698Z,19.05
2019-01-20T09:09:58.397Z,18.67
2019-01-20T09:12:27.457Z,19.20
2019-01-20T09:14:56.169Z,19.57
2019-01-20T09:17:25.490Z,20.97
2019-01-20T09:19:54.828Z,19.67
2019-01-20T09:22:24.188Z,21.65
2019-01-20T09:24:53.479Z,20.40
2019-01-20T09:27:22.772Z,20.68
2019-01-20T09:29:52.149Z,18.87
2019-01-20T09:32:21.587Z,19.80
2019-01-20T09:34:50.909Z,26.27
2019-01-20T09:37:20.257Z,19.67
2019-01-20T09:39:49.572Z,22.73
2019-01-20T09:42:18.945Z,18.90
2019-01-20T09:44:48.372Z,20.77
2019-01-20T09:47:17.679Z,19.00
2019-01-20T09:49:46.896Z,19.70
2019-01-20T09:52:16.205Z,21.62
2019-01-20T09:54:45.523Z,20.15
2019-01-20T09:57:14.767Z,19.62
2019-01-20T09:59:44.020Z,19.90
2019-01-20T10:02:13.374Z,20.20
2019-01-20T10:04:42.613Z,19.90
2019-01-20T10:07:11.957Z,19.75
2019-01-20T10:09:41.207Z,19.80
2019-01-20T10:12:10.408Z,20.72
2019-01-20T10:14:39.738Z,21.07
2019-01-20T10:17:12.168Z,20.92
2019-01-20T10:19:41.567Z,21.33
2019-01-20T10:22:10.928Z,18.98
2019-01-20T10:24:40.428Z,20.95
2019-01-20T10:27:09.822Z,20.80
2019-01-20T10:29:39.379Z,20.72
2019-01-20T10:32:08.745Z,22.13
2019-01-20T10:37:22.381Z,22.07
2019-01-20T10:40:24.859Z,20.48
2019-01-20T11:13:08.989Z,23.67
2019-01-20T11:15:37.759Z,24.92
2019-01-20T11:18:06.750Z,21.82
2019-01-20T11:20:35.503Z,24.15
2019-01-20T11:23:04.291Z,23.73
2019-01-20T11:25:35.618Z,23.87
2019-01-20T11:28:04.542Z,24.07
2019-01-20T11:30:33.369Z,25.08
2019-01-20T11:33:02.098Z,22.60
2019-01-20T11:35:30.879Z,23.60
2019-01-20T11:37:59.909Z,23.22
2019-01-20T11:40:28.853Z,23.65
2019-01-20T11:42:57.647Z,22.58
2019-01-20T11:45:27.556Z,24.82
2019-01-20T11:47:56.446Z,23.22
2019-01-20T11:50:25.673Z,23.92
2019-01-20T11:52:54.553Z,23.57
2019-01-20T11:55:23.547Z,22.35
2019-01-20T11:57:52.321Z,21.90
2019-01-20T12:00:22.242Z,21.62
2019-01-20T12:02:51.278Z,21.57
2019-01-20T12:05:20.244Z,21.50
2019-01-20T12:07:49.076Z,22.75
2019-01-20T12:10:18.122Z,23.12
2019-01-20T12:12:51.198Z,24.45
2019-01-20T12:15:20.076Z,22.40
2019-01-20T12:17:48.939Z,23.70
2019-01-20T12:20:17.885Z,23.52
2019-01-20T12:22:46.679Z,24.57
2019-01-20T12:25:16.205Z,23.32
2019-01-20T12:27:44.991Z,22.90
2019-01-20T12:30:21.937Z,22.98
2019-01-20T12:32:50.760Z,21.05
2019-01-20T12:35:19.805Z,20.43
2019-01-20T12:37:48.581Z,20.80
2019-01-20T12:40:24.370Z,21.77
2019-01-20T12:42:53.122Z,22.27
2019-01-20T12:45:35.151Z,21.90
2019-01-20T12:48:04.389Z,21.25
2019-01-20T12:57:40.649Z,21.12
2019-01-20T13:00:35.439Z,22.30
2019-01-20T20:13:28.049Z,24.18
2019-01-20T20:19:16.091Z,24.80
2019-01-20T20:21:53.122Z,23.73
2019-01-20T20:24:25.531Z,25.15
2019-01-20T20:26:53.205Z,24.80
2019-01-20T20:29:22.382Z,25.02
2019-01-20T20:31:51.491Z,25.08
2019-01-20T20:34:20.784Z,25.43
2019-01-20T20:36:49.966Z,26.12
2019-01-20T20:39:19.014Z,27.42
2019-01-20T20:41:48.355Z,26.57
2019-01-20T20:44:17.441Z,26.75
2019-01-20T20:46:47.882Z,26.68
2019-01-20T20:49:17.180Z,27.67
2019-01-20T20:51:46.766Z,26.35
2019-01-20T20:54:15.935Z,26.15
2019-01-20T20:57:18.293Z,27.17
2019-01-20T20:59:47.113Z,26.05
2019-01-20T21:02:15.978Z,25.25
2019-01-20T21:04:44.968Z,27.50
2019-01-20T21:07:13.791Z,27.17
2019-01-20T21:09:44.086Z,26.33
2019-01-20T21:12:14.343Z,27.10
2019-01-20T21:14:43.320Z,25.05
2019-01-20T21:17:12.216Z,27.05
2019-01-20T21:19:41.158Z,25.95
2019-01-20T21:22:11.032Z,27.85
2019-01-20T21:24:39.869Z,26.68
2019-01-20T21:27:08.977Z,26.57
2019-01-20T21:29:37.825Z,27.13
2019-01-20T21:32:06.585Z,26.23
2019-01-20T21:34:35.432Z,24.55
2019-01-20T21:37:04.344Z,26.77
2019-01-20T21:39:33.323Z,28.15
2019-01-20T21:42:02.074Z,26.57
2019-01-20T21:44:31.697Z,25.82
2019-01-20T21:47:00.415Z,26.62
2019-01-20T21:49:29.197Z,26.17
2019-01-20T21:51:57.984Z,26.70
2019-01-20T21:54:26.869Z,27.37
2019-01-20T21:56:55.669Z,27.07
